Time;durP1;ratioP1;P1;durP2;ratioP2;P2;SDS_P1;SDS_P2;PMS_P1;PMS_P2;Temp;Humidity;BMP_temperature;BMP_pressure;BME280_temperature;BME280_humidity;BME280_pressure;Samples;Min_cycle;Max_cycle;Signal;HPM_P1;HPM_P2
2022/09/19 00:02:36;;;;;;;3.55;0.60;;;;;;;;;;5041655;28;20560;-89
2022/09/19 00:05:21;;;;;;;0.68;0.60;;;;;;;;;;5038849;28;20087;-89
2022/09/19 00:08:05;;;;;;;1.48;0.60;;;;;;;;;;5038568;28;20075;-91
2022/09/19 00:10:51;;;;;;;0.55;0.40;;;;;;;;;;5038057;28;20526;-88
2022/09/19 00:13:38;;;;;;;1.90;0.70;;;;;;;;;;5053845;28;20507;-86
2022/09/19 00:16:24;;;;;;;1.90;0.60;;;;;;;;;;5042871;28;20040;-87
2022/09/19 00:19:10;;;;;;;1.73;0.77;;;;;;;;;;5053437;28;20036;-88
2022/09/19 00:21:56;;;;;;;1.15;0.60;;;;;;;;;;5053181;28;20071;-87
2022/09/19 00:24:48;;;;;;;0.60;0.52;;;;;;;;;;5053566;28;20086;-87
2022/09/19 00:27:33;;;;;;;1.48;0.50;;;;;;;;;;5053642;28;20098;-87
2022/09/19 00:30:17;;;;;;;2.10;0.50;;;;;;;;;;5038426;28;20048;-89
2022/09/19 00:33:02;;;;;;;1.15;0.50;;;;;;;;;;5037811;28;20090;-87
2022/09/19 00:35:50;;;;;;;1.05;0.73;;;;;;;;;;5053043;28;20039;-86
2022/09/19 00:38:35;;;;;;;2.70;0.60;;;;;;;;;;5038102;28;20036;-89
2022/09/19 00:41:21;;;;;;;3.35;0.73;;;;;;;;;;5053420;28;20040;-88
2022/09/19 00:44:24;;;;;;;1.02;0.50;;;;;;;;;;5052788;28;20827;-89
2022/09/19 00:47:11;;;;;;;1.45;0.57;;;;;;;;;;5052795;28;20091;-89
2022/09/19 00:49:57;;;;;;;5.43;0.60;;;;;;;;;;5052330;28;20087;-90
2022/09/19 00:52:44;;;;;;;2.78;0.65;;;;;;;;;;5053212;28;20040;-89
2022/09/19 00:55:31;;;;;;;1.60;0.80;;;;;;;;;;5052905;28;20091;-90
2022/09/19 00:58:19;;;;;;;1.92;1.08;;;;;;;;;;5038078;28;20135;-90
2022/09/19 01:01:03;;;;;;;2.67;0.77;;;;;;;;;;5041356;28;20075;-89
2022/09/19 01:03:48;;;;;;;1.85;0.88;;;;;;;;;;5037617;28;20035;-89
2022/09/19 01:06:48;;;;;;;1.40;0.90;;;;;;;;;;5052910;28;20040;-89
2022/09/19 01:09:43;;;;;;;3.40;0.70;;;;;;;;;;5052287;28;20099;-89
2022/09/19 01:12:48;;;;;;;3.90;0.93;;;;;;;;;;5052550;28;20555;-89
2022/09/19 01:15:38;;;;;;;1.75;0.40;;;;;;;;;;5037431;28;20209;-89
2022/09/19 01:18:25;;;;;;;1.35;0.60;;;;;;;;;;5052607;28;20082;-89
2022/09/19 01:24:37;;;;;;;1.27;0.60;;;;;;;;;;5051808;28;20039;-88
2022/09/19 01:27:27;;;;;;;0.90;0.60;;;;;;;;;;5044101;28;20075;-89
2022/09/19 01:30:13;;;;;;;3.38;0.50;;;;;;;;;;5036828;28;20052;-88
2022/09/19 01:33:10;;;;;;;2.63;0.70;;;;;;;;;;5051694;28;20031;-89
2022/09/19 01:35:56;;;;;;;1.63;0.68;;;;;;;;;;5052171;28;20087;-87
2022/09/19 01:38:42;;;;;;;3.08;0.57;;;;;;;;;;5039077;28;20032;-89
2022/09/19 01:41:27;;;;;;;3.72;0.75;;;;;;;;;;5052170;28;20511;-89
2022/09/19 01:44:18;;;;;;;2.17;0.80;;;;;;;;;;5036515;28;20405;-87
2022/09/19 01:47:16;;;;;;;3.47;0.80;;;;;;;;;;5050653;28;20421;-88
2022/09/19 01:50:00;;;;;;;2.45;0.70;;;;;;;;;;5051594;28;20080;-88
2022/09/19 01:53:09;;;;;;;1.35;0.63;;;;;;;;;;5052071;28;20083;-87
2022/09/19 01:55:54;;;;;;;0.90;0.55;;;;;;;;;;5044187;28;20440;-88
2022/09/19 01:58:42;;;;;;;2.92;0.80;;;;;;;;;;5038600;28;20393;-88
2022/09/19 02:01:57;;;;;;;1.35;0.68;;;;;;;;;;5051905;28;20040;-88
2022/09/19 02:04:44;;;;;;;0.85;0.70;;;;;;;;;;4991503;28;20091;-87
2022/09/19 02:07:39;;;;;;;1.67;0.73;;;;;;;;;;5037211;28;20124;-88
2022/09/19 02:10:27;;;;;;;2.15;0.70;;;;;;;;;;5051534;28;20047;-88
2022/09/19 02:13:11;;;;;;;2.20;0.63;;;;;;;;;;5051362;28;20036;-88
2022/09/19 02:15:59;;;;;;;3.70;0.77;;;;;;;;;;5036880;28;20175;-88
2022/09/19 02:19:28;;;;;;;0.77;0.60;;;11.50;99.90;;;;;;5051731;28;20577;-88
2022/09/19 02:22:20;;;;;;;2.72;0.68;;;;;;;;;;4973227;28;20109;-88
2022/09/19 02:25:06;;;;;;;9.25;0.85;;;;;;;;;;5033794;28;20393;-89
2022/09/19 02:27:56;;;;;;;1.05;0.50;;;;;;;;;;5055886;28;20071;-88
2022/09/19 02:30:42;;;;;;;4.65;0.65;;;;;;;;;;5055685;28;20047;-89
2022/09/19 02:33:27;;;;;;;4.45;0.77;;;;;;;;;;5055415;28;20058;-88
2022/09/19 02:36:13;;;;;;;3.35;0.75;;;;;;;;;;5027323;28;20072;-89
2022/09/19 02:39:19;;;;;;;0.50;0.50;;;;;;;;;;5040415;28;20036;-89
2022/09/19 02:42:13;;;;;;;3.08;0.60;;;;;;;;;;5055408;28;20040;-86
2022/09/19 02:45:32;;;;;;;3.55;0.65;;;11.20;99.90;;;;;;5029649;28;20036;-88
2022/09/19 02:48:21;;;;;;;6.28;0.80;;;;;;;;;;5043384;28;20526;-88
2022/09/19 02:51:27;;;;;;;5.07;0.70;;;;;;;;;;5054640;28;20393;-87
2022/09/19 02:54:16;;;;;;;6.25;0.80;;;;;;;;;;5054517;28;20535;-88
2022/09/19 02:57:04;;;;;;;3.17;0.70;;;;;;;;;;5055374;28;20040;-89
2022/09/19 02:59:50;;;;;;;4.55;0.80;;;;;;;;;;5039769;28;20076;-89
2022/09/19 03:02:37;;;;;;;2.33;0.68;;;;;;;;;;5055366;28;20060;-88
2022/09/19 03:05:22;;;;;;;2.35;0.60;;;;;;;;;;5054662;28;20047;-89
2022/09/19 03:08:15;;;;;;;1.70;0.60;;;;;;;;;;5054830;28;20040;-87
2022/09/19 03:11:00;;;;;;;2.83;0.77;;;;;;;;;;5040057;28;20047;-89
2022/09/19 03:13:45;;;;;;;2.22;0.57;;;;;;;;;;5055186;28;20442;-88
2022/09/19 03:16:40;;;;;;;0.50;0.50;;;;;;;;;;5039368;28;20040;-89
2022/09/19 03:19:25;;;;;;;1.48;0.60;;;;;;;;;;5039310;28;20048;-89
2022/09/19 03:22:09;;;;;;;2.90;0.85;;;;;;;;;;5039520;28;20059;-87
2022/09/19 03:24:54;;;;;;;3.25;0.70;;;;;;;;;;5039642;28;20047;-89
2022/09/19 03:27:38;;;;;;;0.60;0.50;;;;;;;;;;5039943;28;20033;-88
2022/09/19 03:30:23;;;;;;;2.03;0.68;;;;;;;;;;5054017;28;20458;-88
2022/09/19 03:33:08;;;;;;;5.15;0.82;;;;;;;;;;5054180;28;20492;-90
2022/09/19 03:35:56;;;;;;;2.63;0.60;;;;;;;;;;5041911;28;20037;-89
2022/09/19 03:38:44;;;;;;;3.00;0.70;;;;;;;;;;5054523;28;20091;-89
2022/09/19 03:41:32;;;;;;;1.08;0.52;;;;;;;;;;5038950;28;20416;-89
2022/09/19 03:44:19;;;;;;;3.40;0.70;;;;;;;;;;5053920;28;20168;-90
2022/09/19 03:47:04;;;;;;;1.88;0.60;;;;;;;;;;5054340;28;20037;-89
2022/09/19 03:49:51;;;;;;;0.68;0.60;;;;;;;;;;5054507;28;20397;-89
2022/09/19 03:52:36;;;;;;;3.03;0.70;;;;;;;;;;5053467;28;20071;-89
2022/09/19 03:55:21;;;;;;;0.75;0.50;;;;;;;;;;5053707;28;20044;-89
2022/09/19 03:58:05;;;;;;;5.93;0.93;;;;;;;;;;5054102;28;20102;-89
2022/09/19 04:00:50;;;;;;;3.67;0.65;;;;;;;;;;5039004;28;20126;-89
2022/09/19 04:03:37;;;;;;;1.85;0.65;;;;;;;;;;5038553;28;20028;-89
2022/09/19 04:06:22;;;;;;;3.85;0.60;;;;;;;;;;5053349;28;20048;-89
2022/09/19 04:09:07;;;;;;;2.65;0.77;;;;;;;;;;5053910;28;20396;-89
2022/09/19 04:11:52;;;;;;;4.28;0.70;;;;;;;;;;5053814;28;20575;-89
2022/09/19 04:14:38;;;;;;;1.67;0.65;;;;;;;;;;5038152;28;20666;-88
2022/09/19 04:17:22;;;;;;;1.33;0.57;;;;;;;;;;5053315;28;20424;-89
2022/09/19 04:20:10;;;;;;;3.00;0.80;;;;;;;;;;5038585;28;20106;-89
2022/09/19 04:22:55;;;;;;;0.82;0.60;;;;;;;;;;5053938;28;20429;-88
2022/09/19 04:25:40;;;;;;;5.40;0.70;;;;;;;;;;5040124;28;20135;-89
2022/09/19 04:28:24;;;;;;;2.67;0.63;;;;;;;;;;5037024;28;20484;-88
2022/09/19 04:31:12;;;;;;;6.10;0.85;;;;;;;;;;5050429;28;20040;-89
2022/09/19 04:33:56;;;;;;;4.15;1.30;;;;;;;;;;5052265;28;20047;-88
2022/09/19 04:36:41;;;;;;;4.25;0.60;;;;;;;;;;5050221;28;20539;-89
2022/09/19 04:39:26;;;;;;;3.58;0.63;;;;;;;;;;5050797;28;20044;-89
2022/09/19 04:42:10;;;;;;;0.77;0.63;;;;;;;;;;5035616;28;20044;-90
2022/09/19 04:44:56;;;;;;;0.95;0.63;;;;;;;;;;5028821;28;20397;-90
2022/09/19 04:47:40;;;;;;;1.58;0.60;;;;;;;;;;5049882;28;20051;-89
2022/09/19 04:50:25;;;;;;;0.68;0.60;;;;;;;;;;5036320;28;20036;-88
2022/09/19 04:53:13;;;;;;;1.13;0.55;;;;;;;;;;5036241;28;20116;-89
2022/09/19 04:55:57;;;;;;;0.75;0.52;;;;;;;;;;5052841;28;20096;-88
2022/09/19 04:58:42;;;;;;;4.95;0.85;;;;;;;;;;5049355;28;20040;-89
2022/09/19 05:01:27;;;;;;;1.85;0.80;;;;;;;;;;5050454;28;20041;-89
2022/09/19 05:04:16;;;;;;;5.00;1.13;;;;;;;;;;5051402;28;20043;-89
2022/09/19 05:07:02;;;;;;;0.82;0.73;;;;;;;;;;5049797;28;20117;-90
2022/09/19 05:09:46;;;;;;;2.85;0.80;;;;;;;;;;5049844;28;20090;-90
2022/09/19 05:12:31;;;;;;;2.53;0.73;;;;;;;;;;5051849;28;20047;-90
2022/09/19 05:15:16;;;;;;;3.78;0.85;;;;;;;;;;5036688;28;20079;-89
2022/09/19 05:18:01;;;;;;;1.15;0.60;;;;;;;;;;5052077;28;20095;-89
2022/09/19 05:20:45;;;;;;;1.77;0.75;;;;;;;;;;5034675;28;20087;-90
2022/09/19 05:23:30;;;;;;;2.42;0.68;;;;;;;;;;5036638;28;20056;-89
2022/09/19 05:26:18;;;;;;;1.95;0.68;;;;;;;;;;5051170;28;20055;-90
2022/09/19 05:29:02;;;;;;;0.93;0.85;;;;;;;;;;5049542;28;20064;-90
2022/09/19 05:31:47;;;;;;;0.68;0.68;;;;;;;;;;5034533;28;20035;-89
2022/09/19 05:34:32;;;;;;;0.98;0.65;;;;;;;;;;5050456;28;20036;-89
2022/09/19 05:37:17;;;;;;;1.10;0.75;;;;;;;;;;5036139;28;20043;-89
2022/09/19 05:40:03;;;;;;;1.85;0.82;;;;;;;;;;5034446;28;20036;-91
2022/09/19 05:42:49;;;;;;;1.92;0.68;;;;;;;;;;5034767;28;20036;-90
2022/09/19 05:45:34;;;;;;;4.43;0.63;;;;;;;;;;5035260;28;20043;-90
2022/09/19 05:48:19;;;;;;;2.17;0.70;;;;;;;;;;5051359;28;20413;-89
2022/09/19 05:51:04;;;;;;;3.17;0.63;;;;;;;;;;5049345;28;20136;-90
2022/09/19 05:53:57;;;;;;;1.25;0.60;;;;;;;;;;5032015;28;20124;-90
2022/09/19 05:56:45;;;;;;;6.03;1.15;;;;;;;;;;5046199;28;20047;-90
2022/09/19 05:59:29;;;;;;;8.77;0.98;;;;;;;;;;5015200;28;20114;-90
2022/09/19 06:02:14;;;;;;;2.35;0.63;;;;;;;;;;5030966;28;20493;-89
2022/09/19 06:04:58;;;;;;;2.08;0.60;;;;;;;;;;5031899;28;20036;-89
2022/09/19 06:07:43;;;;;;;2.80;0.80;;;;;;;;;;5031551;28;20091;-90
2022/09/19 06:10:27;;;;;;;1.98;0.70;;;;;;;;;;5031887;28;20048;-91
2022/09/19 06:13:13;;;;;;;4.47;1.10;;;;;;;;;;5028608;28;20041;-90
2022/09/19 06:15:59;;;;;;;1.38;0.68;;;;;;;;;;5029091;28;20041;-88
2022/09/19 06:18:44;;;;;;;2.22;0.70;;;;;;;;;;5028704;28;20114;-89
2022/09/19 06:21:31;;;;;;;1.75;0.60;;;;;;;;;;5030845;28;20040;-90
2022/09/19 06:24:16;;;;;;;2.90;0.70;;;;;;;;;;5029064;28;20055;-90
2022/09/19 06:27:01;;;;;;;2.83;0.70;;;;;;;;;;5034377;28;20056;-89
2022/09/19 06:29:46;;;;;;;1.85;0.60;;;;;;;;;;5025417;28;20109;-89
2022/09/19 06:32:30;;;;;;;1.63;0.80;;;;;;;;;;5031938;28;20044;-89
2022/09/19 06:35:15;;;;;;;1.17;0.60;;;;;;;;;;5031988;28;20099;-89
2022/09/19 06:38:00;;;;;;;5.78;0.75;;;;;;;;;;5031670;28;20072;-89
2022/09/19 06:40:46;;;;;;;1.02;0.70;;;;;;;;;;5031569;28;20060;-89
2022/09/19 06:43:31;;;;;;;1.75;0.70;;;;;;;;;;5026215;28;20060;-89
2022/09/19 06:46:15;;;;;;;1.63;0.93;;;;;;;;;;5031965;28;20064;-89
2022/09/19 06:49:01;;;;;;;2.05;0.82;;;;;;;;;;5031563;28;20032;-89
2022/09/19 06:51:45;;;;;;;3.97;0.80;;;;;;;;;;5023673;28;20092;-89
2022/09/19 06:54:31;;;;;;;2.60;0.70;;;;;;;;;;5031831;28;20048;-90
2022/09/19 06:57:15;;;;;;;3.75;0.60;;;;;;;;;;5032108;28;20091;-89
2022/09/19 07:00:00;;;;;;;1.42;0.80;;;;;;;;;;5043575;28;20059;-90
2022/09/19 07:02:45;;;;;;;4.68;0.73;;;;;;;;;;5051292;28;20040;-90
2022/09/19 07:05:31;;;;;;;8.23;0.98;;;;;;;;;;5051819;28;20071;-89
2022/09/19 07:08:16;;;;;;;4.43;1.15;;;;;;;;;;5051604;28;20086;-89
2022/09/19 07:11:00;;;;;;;1.73;0.80;;;;;;;;;;5054551;28;20067;-90
2022/09/19 07:13:48;;;;;;;6.50;1.10;;;;;;;;;;5039553;28;20083;-89
2022/09/19 07:16:33;;;;;;;1.20;0.60;;;;;;;;;;5054921;28;20036;-90
2022/09/19 07:19:18;;;;;;;3.42;0.98;;;;;;;;;;5039834;28;20095;-93
2022/09/19 07:22:03;;;;;;;1.50;0.70;;;;;;;;;;5054259;28;20071;-90
2022/09/19 07:24:49;;;;;;;3.33;0.70;;;;;;;;;;5053982;28;20117;-91
2022/09/19 07:27:34;;;;;;;2.28;0.70;;;;;;;;;;5053941;28;20085;-93
2022/09/19 07:30:19;;;;;;;3.72;0.63;;;;;;;;;;5041827;28;20072;-93
2022/09/19 07:33:05;;;;;;;1.67;0.60;;;;;;;;;;5057028;28;20094;-91
2022/09/19 07:35:51;;;;;;;0.65;0.45;;;;;;;;;;5052811;28;20040;-92
2022/09/19 07:38:36;;;;;;;1.90;0.82;;;;;;;;;;5054054;28;20039;-85
2022/09/19 07:41:20;;;;;;;5.45;0.80;;;;;;;;;;5054458;28;20166;-87
2022/09/19 07:44:05;;;;;;;1.02;0.60;;;;;;;;;;5053701;28;20094;-87
2022/09/19 07:49:55;;;;;;;2.10;0.70;;;;;;;;;;5053814;28;20068;-87
2022/09/19 07:52:40;;;;;;;1.60;0.73;;;;;;;;;;5053967;28;20035;-86
2022/09/19 07:55:25;;;;;;;6.95;0.75;;;;;;;;;;5054036;28;20094;-91
2022/09/19 07:58:11;;;;;;;1.27;0.60;;;;;;;;;;5053008;28;20063;-89
2022/09/19 08:00:58;;;;;;;4.45;0.60;;;;;;;;;;5054014;28;20416;-89
2022/09/19 08:03:44;;;;;;;3.72;0.65;;;;;;;;;;5053918;28;20498;-87
2022/09/19 08:06:29;;;;;;;5.82;0.90;;;;;;;;;;5036004;28;20040;-87
2022/09/19 08:09:14;;;;;;;3.55;0.90;;;;;;;;;;5036059;28;20040;-88
2022/09/19 08:12:05;;;;;;;3.38;0.80;;;;;;;;;;5053326;28;20087;-88
2022/09/19 08:14:50;;;;;;;3.10;0.82;;;;;;;;;;5053443;28;20110;-86
2022/09/19 08:17:36;;;;;;;2.30;0.73;;;;;;;;;;5044415;28;20031;-88
2022/09/19 08:20:21;;;;;;;2.10;0.60;;;;;;;;;;5053425;28;20039;-88
2022/09/19 08:23:06;;;;;;;3.60;0.82;;;;;;;;;;5038098;28;20447;-89
2022/09/19 08:25:52;;;;;;;1.35;0.63;;;;;;;;;;5042241;28;20036;-86
2022/09/19 08:28:38;;;;;;;2.90;0.90;;;;;;;;;;5053320;28;20098;-88
2022/09/19 08:31:24;;;;;;;3.05;0.73;;;;;;;;;;5053474;28;20087;-88
2022/09/19 08:34:09;;;;;;;4.63;0.80;;;;;;;;;;5035194;28;20036;-86
2022/09/19 08:36:58;;;;;;;3.03;0.90;;;;;;;;;;5035053;28;20086;-86
2022/09/19 08:40:15;;;;;;;3.10;1.05;;;;;;;;;;5026811;28;20035;-87
2022/09/19 08:42:48;;;;;;;4.15;0.80;;;;;;;;;;5053175;28;20048;-89
2022/09/19 08:45:36;;;;;;;3.88;0.80;;;;;;;;;;5053107;28;21703;-88
2022/09/19 08:48:24;;;;;;;3.17;0.80;;;;;;;;;;5052939;28;20040;-87
2022/09/19 08:51:19;;;;;;;2.67;0.88;;;;;;;;;;5036295;28;20533;-88
2022/09/19 08:54:29;;;;;;;2.42;0.70;;;18.90;99.90;;;;;;5035986;28;20498;-90
2022/09/19 08:57:34;;;;;;;2.63;0.65;;;;;;;;;;5048316;28;20082;-90
2022/09/19 09:00:20;;;;;;;3.95;0.77;;;;;;;;;;5047454;28;20587;-86
2022/09/19 09:03:05;;;;;;;1.58;0.73;;;;;;;;;;5052454;28;20048;-86
2022/09/19 09:06:05;;;;;;;4.65;0.95;;;;;;;;;;5052820;28;20040;-87
2022/09/19 09:08:59;;;;;;;2.10;0.73;;;;;;;;;;5047982;28;20035;-88
2022/09/19 09:11:51;;;;;;;2.88;0.70;;;;;;;;;;5030216;28;20044;-86
2022/09/19 09:14:36;;;;;;;5.18;1.08;;;;;;;;;;5031910;28;20499;-88
2022/09/19 09:17:59;;;;;;;4.60;0.90;;;17.20;99.90;;;;;;5047333;28;20036;-87
2022/09/19 09:21:11;;;;;;;1.58;0.60;;;;;;;;;;5038173;28;20043;-87
2022/09/19 09:23:58;;;;;;;2.22;0.60;;;;;;;;;;5052684;28;20458;-86
2022/09/19 09:26:45;;;;;;;6.68;0.93;;;;;;;;;;5048460;28;20028;-87
2022/09/19 09:29:44;;;;;;;6.78;0.77;;;;;;;;;;5051855;28;20634;-85
2022/09/19 09:32:31;;;;;;;1.23;0.70;;;;;;;;;;5043486;28;20451;-86
2022/09/19 09:35:16;;;;;;;3.22;1.23;;;;;;;;;;5044577;28;20464;-84
2022/09/19 09:38:20;;;;;;;3.03;0.65;;;;;;;;;;5048052;28;20071;-82
2022/09/19 09:44:13;;;;;;;2.30;0.60;;;;;;;;;;5048253;28;20120;-85
2022/09/19 09:47:20;;;;;;;5.35;0.80;;;;;;;;;;5043203;28;20044;-86
2022/09/19 09:50:13;;;;;;;3.13;0.90;;;;;;;;;;5025184;28;20047;-83
2022/09/19 09:53:04;;;;;;;1.02;0.70;;;;;;;;;;5043035;28;20072;-87
2022/09/19 09:56:17;;;;;;;3.38;0.60;;;;;;;;;;5048640;28;20041;-85
2022/09/19 10:03:33;;;;;;;8.60;0.73;;;;;;;;;;5047455;28;20060;-85
2022/09/19 10:05:29;;;;;;;3.63;0.80;;;;;;;;;;5047025;28;20064;-85
2022/09/19 10:08:21;;;;;;;1.02;0.70;;;;;;;;;;5045629;28;20048;-85
2022/09/19 10:11:11;;;;;;;3.08;0.80;;;;;;;;;;5047336;28;20063;-82
2022/09/19 10:14:01;;;;;;;1.77;0.70;;;;;;;;;;5045908;28;20067;-85
2022/09/19 10:16:52;;;;;;;0.70;0.50;;;;;;;;;;5047551;28;20035;-84
2022/09/19 10:19:42;;;;;;;1.85;0.57;;;;;;;;;;5031495;28;20055;-86
2022/09/19 10:22:27;;;;;;;3.00;0.60;;;;;;;;;;5047532;28;20036;-85
2022/09/19 10:25:13;;;;;;;4.03;0.65;;;;;;;;;;5029615;28;20067;-85
2022/09/19 10:28:02;;;;;;;2.20;0.90;;;;;;;;;;5046528;28;20408;-84
2022/09/19 10:30:53;;;;;;;3.53;0.70;;;;;;;;;;5048308;28;20087;-84
2022/09/19 10:33:43;;;;;;;1.80;0.70;;;;;;;;;;5048179;28;20039;-82
2022/09/19 10:36:34;;;;;;;1.23;0.60;;;;;;;;;;5047396;28;20079;-86
2022/09/19 10:39:22;;;;;;;2.85;0.60;;;;;;;;;;5047641;28;20064;-86
2022/09/19 10:42:19;;;;;;;3.28;0.75;;;;;;;;;;5020444;28;20040;-86
2022/09/19 10:45:12;;;;;;;3.72;0.70;;;;;;;;;;5023310;28;20047;-89
2022/09/19 10:48:15;;;;;;;2.30;0.75;;;;;;;;;;5052248;28;20039;-85
2022/09/19 10:51:02;;;;;;;4.22;0.75;;;;;;;;;;5026266;28;20090;-85
2022/09/19 10:53:48;;;;;;;4.68;0.90;;;;;;;;;;5036849;28;20067;-86
2022/09/19 10:56:36;;;;;;;5.65;1.00;;;;;;;;;;5022209;28;20242;-85
2022/09/19 10:59:27;;;;;;;1.20;0.70;;;;;;;;;;5030079;28;20547;-86
2022/09/19 11:02:20;;;;;;;2.05;0.73;;;;;;;;;;5031230;28;20068;-83
2022/09/19 11:05:09;;;;;;;5.25;0.85;;;;;;;;;;5030686;28;20512;-84
2022/09/19 11:07:54;;;;;;;2.85;0.82;;;;;;;;;;5031661;28;20048;-84
2022/09/19 11:10:40;;;;;;;1.30;0.85;;;;;;;;;;5031955;28;20056;-85
2022/09/19 11:13:25;;;;;;;7.10;0.88;;;;;;;;;;5030388;28;20064;-88
2022/09/19 11:16:10;;;;;;;1.13;0.60;;;;;;;;;;5031628;28;20040;-84
2022/09/19 11:18:54;;;;;;;3.08;0.77;;;;;;;;;;5030575;28;20048;-87
2022/09/19 11:21:41;;;;;;;6.60;0.88;;;;;;;;;;5031022;28;20052;-85
2022/09/19 11:24:55;;;;;;;3.03;0.63;;;;;;;;;;5030923;28;20712;-86
2022/09/19 11:27:49;;;;;;;;;;;18.50;99.90;;;;;;5025717;28;20067;-86
2022/09/19 11:30:36;;;;;;;2.35;0.73;;;;;;;;;;5030878;28;20585;-84
2022/09/19 11:33:21;;;;;;;2.63;0.70;;;;;;;;;;5030571;28;20496;-85
2022/09/19 11:36:15;;;;;;;2.95;0.70;;;;;;;;;;5030233;28;20041;-85
2022/09/19 11:39:03;;;;;;;2.22;0.77;;;;;;;;;;5030072;28;20449;-85
2022/09/19 11:41:54;;;;;;;2.22;0.70;;;;;;;;;;5030290;28;20052;-88
2022/09/19 11:44:48;;;;;;;3.05;0.65;;;;;;;;;;5020138;28;20096;-85
2022/09/19 11:47:34;;;;;;;1.80;0.88;;;;;;;;;;5029435;28;20037;-85
2022/09/19 11:50:32;;;;;;;1.50;0.55;;;;;;;;;;5029865;28;20076;-84
2022/09/19 11:53:40;;;;;;;2.20;0.70;;;;;;;;;;5028183;28;20047;-86
2022/09/19 11:56:48;;;;;;;4.22;0.90;;;;;;;;;;5029691;28;20513;-85
2022/09/19 11:59:33;;;;;;;1.77;0.60;;;;;;;;;;5035652;28;20067;-86
2022/09/19 12:02:20;;;;;;;2.13;0.60;;;;;;;;;;5049013;28;20052;-86
2022/09/19 12:05:23;;;;;;;1.92;0.75;;;;;;;;;;5035054;28;20090;-86
2022/09/19 12:08:08;;;;;;;4.68;0.80;;;;;;;;;;5051666;28;20052;-85
2022/09/19 12:10:55;;;;;;;5.95;1.23;;;;;;;;;;5038897;28;20044;-85
2022/09/19 12:13:43;;;;;;;1.75;0.73;;;;;;;;;;5053923;28;20040;-86
2022/09/19 12:16:34;;;;;;;0.80;0.43;;;;;;;;;;5053657;28;20032;-86
2022/09/19 12:19:23;;;;;;;3.75;0.70;;;;;;;;;;5031640;28;20090;-85
2022/09/19 12:22:28;;;;;;;4.15;0.73;;;;;;;;;;5053797;28;20401;-86
2022/09/19 12:25:18;;;;;;;2.22;0.60;;;;;;;;;;5053709;28;20055;-85
2022/09/19 12:28:06;;;;;;;2.70;0.80;;;;;;;;;;5053792;28;20071;-85
2022/09/19 12:30:55;;;;;;;2.53;0.60;;;;;;;;;;5044399;28;20091;-86
2022/09/19 12:34:10;;;;;;;1.08;0.50;;;;;;;;;;5052702;28;20524;-87
2022/09/19 12:37:06;;;;;;;1.42;0.68;;;;;;;;;;5030625;28;20052;-85
2022/09/19 12:40:04;;;;;;;0.88;0.52;;;;;;;;;;5043672;28;20109;-85
2022/09/19 12:42:53;;;;;;;5.28;0.80;;;;;;;;;;5038699;28;20409;-86
2022/09/19 12:45:44;;;;;;;4.75;0.75;;;;;;;;;;5048736;28;20091;-86
2022/09/19 12:48:39;;;;;;;2.90;0.80;;;;;;;;;;5032391;28;20036;-85
2022/09/19 12:51:33;;;;;;;1.08;0.50;;;;;;;;;;5047601;28;20063;-88
2022/09/19 12:54:24;;;;;;;2.90;0.88;;;;;;;;;;5045226;28;20078;-86
2022/09/19 12:57:22;;;;;;;4.13;0.80;;;;;;;;;;5051933;28;20036;-87
2022/09/19 13:00:13;;;;;;;3.15;0.68;;;;;;;;;;5050857;28;20147;-86
2022/09/19 13:02:58;;;;;;;4.03;0.77;;;;;;;;;;5051984;28;20079;-87
2022/09/19 13:05:50;;;;;;;3.97;0.70;;;;;;;;;;5050280;28;20079;-87
2022/09/19 13:08:53;;;;;;;1.45;0.70;;;;;;;;;;5050963;28;20036;-86
2022/09/19 13:11:41;;;;;;;5.70;0.75;;;16.90;99.90;;;;;;5024411;28;20040;-87
2022/09/19 13:14:44;;;;;;;1.38;0.60;;;;;;;;;;5051442;28;20043;-86
2022/09/19 13:23:43;;;;;;;0.85;0.55;;;;;;;;;;5049495;28;20519;-88
2022/09/19 13:26:34;;;;;;;4.43;0.70;;;;;;;;;;5035102;28;20116;-88
2022/09/19 13:29:18;;;;;;;2.97;0.80;;;;;;;;;;5034201;28;20036;-86
2022/09/19 13:32:04;;;;;;;3.63;0.90;;;;;;;;;;5035679;28;20059;-87
2022/09/19 13:35:14;;;;;;;3.92;0.95;;;;;;;;;;5034333;28;20446;-87
2022/09/19 13:38:00;;;;;;;8.60;1.00;;;;;;;;;;5041048;28;20035;-86
2022/09/19 13:40:56;;;;;;;0.73;0.60;;;;;;;;;;5050131;28;20106;-88
2022/09/19 13:43:49;;;;;;;1.40;0.70;;;;;;;;;;5050386;28;20488;-87
2022/09/19 13:46:43;;;;;;;1.30;0.68;;;;;;;;;;5050382;28;20040;-85
2022/09/19 13:49:40;;;;;;;6.35;0.88;;;;;;;;;;5050702;28;20036;-87
2022/09/19 13:52:34;;;;;;;2.63;0.70;;;;;;;;;;5050675;28;20087;-86
2022/09/19 13:55:30;;;;;;;2.75;0.77;;;;;;;;;;5048226;28;20063;-87
2022/09/19 13:58:19;;;;;;;2.33;1.10;;;;;;;;;;5049808;28;20449;-87
2022/09/19 14:01:07;;;;;;;1.10;0.60;;;;;;;;;;5027976;28;20100;-88
2022/09/19 14:04:52;;;;;;;2.55;0.70;;;;;;;;;;5003682;28;20056;-88
2022/09/19 14:07:02;;;;;;;1.45;0.70;;;;;;;;;;5031386;28;20099;-88
2022/09/19 14:09:51;;;;;;;1.75;0.60;;;;;;;;;;5031343;28;20088;-88
2022/09/19 14:12:36;;;;;;;3.20;1.05;;;;;;;;;;5023669;28;20032;-84
2022/09/19 14:15:40;;;;;;;1.42;0.70;;;16.30;99.90;;;;;;5007749;28;20112;-90
2022/09/19 14:18:29;;;;;;;1.98;0.50;;;;;;;;;;5034203;28;20100;-88
2022/09/19 14:21:29;;;;;;;4.55;0.68;;;;;;;;;;5035690;28;20045;-84
2022/09/19 14:24:20;;;;;;;3.90;0.85;;;;;;;;;;5035364;28;20064;-87
2022/09/19 14:27:15;;;;;;;2.08;0.60;;;;;;;;;;5019997;28;20060;-87
2022/09/19 14:30:15;;;;;;;2.38;0.70;;;;;;;;;;5035593;28;20125;-87
2022/09/19 14:33:09;;;;;;;1.42;0.70;;;;;;;;;;5035636;28;20511;-87
2022/09/19 14:36:07;;;;;;;2.78;0.52;;;;;;;;;;5020948;28;20032;-87
2022/09/19 14:39:25;;;;;;;2.10;0.80;;;15.10;99.90;;;;;;5018473;28;20476;-87
2022/09/19 14:42:10;;;;;;;9.15;0.80;;;;;;;;;;5008983;28;20037;-87
2022/09/19 14:44:55;;;;;;;1.48;0.70;;;;;;;;;;5035423;28;20090;-87
2022/09/19 14:47:44;;;;;;;3.92;1.23;;;;;;;;;;5035848;28;20179;-86
2022/09/19 14:50:35;;;;;;;3.97;1.10;;;;;;;;;;5031235;28;20040;-87
2022/09/19 14:53:32;;;;;;;2.72;0.50;;;;;;;;;;5035212;28;20080;-88
2022/09/19 14:56:19;;;;;;;1.45;0.65;;;;;;;;;;5016932;28;20136;-87
2022/09/19 14:59:03;;;;;;;3.67;0.73;;;;;;;;;;5020147;28;20068;-88
2022/09/19 15:01:48;;;;;;;0.98;0.65;;;;;;;;;;5034115;28;20051;-87
2022/09/19 15:04:33;;;;;;;2.95;0.68;;;;;;;;;;5051690;28;20044;-87
2022/09/19 15:07:25;;;;;;;1.10;0.80;;;;;;;;;;5046824;28;20040;-88
2022/09/19 15:10:19;;;;;;;1.70;0.80;;;;;;;;;;5050862;28;20066;-88
2022/09/19 15:13:17;;;;;;;0.52;0.50;;;;;;;;;;5048481;28;20839;-86
2022/09/19 15:16:10;;;;;;;1.85;0.60;;;;;;;;;;5043150;28;20104;-87
2022/09/19 15:18:56;;;;;;;2.75;0.80;;;;;;;;;;5051214;28;20048;-84
2022/09/19 15:21:41;;;;;;;2.22;0.65;;;;;;;;;;5051626;28;20120;-90
2022/09/19 15:24:27;;;;;;;5.63;0.93;;;;;;;;;;5042312;28;20082;-89
2022/09/19 15:27:12;;;;;;;2.70;0.57;;;;;;;;;;5036251;28;20520;-84
2022/09/19 15:30:02;;;;;;;4.57;0.80;;;;;;;;;;5051025;28;20408;-85
2022/09/19 15:32:49;;;;;;;3.25;0.75;;;;;;;;;;5041121;28;20135;-83
2022/09/19 15:35:34;;;;;;;2.17;0.80;;;;;;;;;;5050795;28;20040;-87
2022/09/19 15:38:24;;;;;;;1.88;0.60;;;;;;;;;;5051277;28;20448;-86
2022/09/19 15:41:10;;;;;;;2.58;0.75;;;;;;;;;;5050264;28;20079;-85
2022/09/19 15:43:57;;;;;;;2.35;0.85;;;;;;;;;;5050613;28;20412;-85
2022/09/19 15:46:46;;;;;;;5.18;0.77;;;;;;;;;;5051250;28;20028;-84
2022/09/19 15:49:35;;;;;;;6.07;0.88;;;;;;;;;;5032241;28;20036;-87
2022/09/19 15:52:22;;;;;;;2.28;0.60;;;;;;;;;;5050844;28;20067;-87
2022/09/19 15:55:11;;;;;;;2.70;0.80;;;;;;;;;;5038295;28;20044;-85
2022/09/19 15:57:57;;;;;;;0.90;0.70;;;;;;;;;;5036071;28;20040;-86
2022/09/19 16:00:42;;;;;;;1.42;0.70;;;;;;;;;;5049615;28;20071;-88
2022/09/19 16:03:28;;;;;;;0.70;0.50;;;;;;;;;;5033182;28;20055;-87
2022/09/19 16:09:32;;;;;;;3.22;0.70;;;;;;;;;;5048394;28;20499;-86
2022/09/19 16:12:26;;;;;;;1.55;0.52;;;;;;;;;;5049853;28;20039;-86
2022/09/19 16:15:14;;;;;;;3.97;0.70;;;;;;;;;;5050152;28;20542;-86
2022/09/19 16:18:00;;;;;;;2.28;0.50;;;;;;;;;;5052223;28;20039;-87
2022/09/19 16:20:50;;;;;;;3.17;0.65;;;;;;;;;;5053696;28;20091;-88
2022/09/19 16:23:40;;;;;;;2.20;0.77;;;;;;;;;;5053335;28;20413;-87
2022/09/19 16:26:32;;;;;;;1.67;0.85;;;;;;;;;;5036346;28;20439;-87
2022/09/19 16:29:18;;;;;;;2.13;0.70;;;;;;;;;;5032844;28;20032;-86
2022/09/19 16:32:03;;;;;;;1.85;0.82;;;;;;;;;;5049697;28;20036;-88
2022/09/19 16:34:53;;;;;;;0.80;0.50;;;;;;;;;;5045847;28;20108;-88
2022/09/19 16:37:39;;;;;;;0.82;0.57;;;;;;;;;;5051199;28;20036;-89
2022/09/19 16:40:27;;;;;;;3.45;1.45;;;;;;;;;;5023081;28;20099;-88
2022/09/19 16:43:33;;;;;;;3.22;0.60;;;;;;;;;;5044495;28;20083;-88
2022/09/19 16:46:17;;;;;;;2.53;0.52;;;;;;;;;;5052774;28;20118;-87
2022/09/19 16:49:02;;;;;;;1.20;0.57;;;;;;;;;;5052591;28;20078;-86
2022/09/19 16:51:50;;;;;;;4.03;0.63;;;;;;;;;;5065277;28;20044;-88
2022/09/19 16:54:35;;;;;;;0.60;0.60;;;;;;;;;;5055874;28;20388;-88
2022/09/19 16:57:19;;;;;;;3.55;0.60;;;;;;;;;;5052457;28;20106;-87
2022/09/19 17:00:07;;;;;;;1.38;0.60;;;;;;;;;;5052888;28;20412;-87
2022/09/19 17:02:52;;;;;;;0.52;0.50;;;;;;;;;;5052827;28;20519;-87
2022/09/19 17:05:38;;;;;;;2.38;0.52;;;;;;;;;;5052740;28;20044;-87
2022/09/19 17:08:22;;;;;;;4.35;0.90;;;;;;;;;;5052236;28;20040;-86
2022/09/19 17:11:09;;;;;;;1.98;0.60;;;;;;;;;;5037354;28;20079;-86
2022/09/19 17:13:53;;;;;;;1.88;0.70;;;;;;;;;;5041010;28;20463;-89
2022/09/19 17:16:38;;;;;;;0.60;0.50;;;;;;;;;;5051716;28;20043;-89